Flugwetter

[source: ADDS]
METAR
LOWL 200420Z 29003KT 9999 FEW060 BKN070 02/M03 Q1032 NOSIG =
TAF LOWL 192315Z 2000/2024 VRB02KT 9999 FEW035 SCT060 TX09/2015Z TNM01/2005Z
TAF
TAF LOWL 192315Z 2000/2024 VRB02KT 9999 FEW035 SCT060 TX09/2015Z TNM01/2005Z =